Time;durP1;ratioP1;P1;durP2;ratioP2;P2;SDS_P1;SDS_P2;PMS_P1;PMS_P2;Temp;Humidity;BMP_temperature;BMP_pressure;BME280_temperature;BME280_humidity;BME280_pressure;Samples;Min_cycle;Max_cycle;Signal;HPM_P1;HPM_P2
2021/08/12 00:00:10;;;;;;;6.60;2.85;;;21.90;63.50;;;;;;5112537;28;20169;-62
2021/08/12 00:02:36;;;;;;;2.58;2.38;;;21.80;64.30;;;;;;5111712;28;20212;-63
2021/08/12 00:05:03;;;;;;;3.33;2.80;;;21.80;63.40;;;;;;5112344;28;20222;-63
2021/08/12 00:07:28;;;;;;;2.90;2.70;;;21.80;63.40;;;;;;5112016;28;20184;-63
2021/08/12 00:09:55;;;;;;;3.38;2.47;;;21.80;63.50;;;;;;5093344;28;20555;-64
2021/08/12 00:12:20;;;;;;;2.95;2.75;;;21.80;63.50;;;;;;5112195;28;20173;-64
2021/08/12 00:14:46;;;;;;;4.03;2.92;;;21.80;63.50;;;;;;5112569;28;20230;-63
2021/08/12 00:17:11;;;;;;;3.38;2.78;;;21.80;63.50;;;;;;5111785;28;20187;-62
2021/08/12 00:19:37;;;;;;;2.80;2.38;;;21.80;63.50;;;;;;5112049;28;20192;-63
2021/08/12 00:22:03;;;;;;;3.13;2.83;;;21.80;63.50;;;;;;5112382;28;20216;-63
2021/08/12 00:24:28;;;;;;;3.13;2.60;;;21.80;63.50;;;;;;5111253;28;20611;-63
2021/08/12 00:26:54;;;;;;;4.00;2.67;;;21.80;63.50;;;;;;5112157;28;20174;-63
2021/08/12 00:29:20;;;;;;;3.10;2.90;;;21.80;63.50;;;;;;5112009;28;20506;-62
2021/08/12 00:31:47;;;;;;;2.70;2.50;;;21.80;63.50;;;;;;5111575;28;20182;-63
2021/08/12 00:34:12;;;;;;;2.92;2.65;;;21.80;63.60;;;;;;5112262;28;20180;-63
2021/08/12 00:36:38;;;;;;;2.78;2.58;;;21.80;63.50;;;;;;5111843;28;20177;-64
2021/08/12 00:39:03;;;;;;;2.70;2.50;;;21.80;63.50;;;;;;5111405;28;20172;-64
2021/08/12 00:41:35;;;;;;;3.20;2.53;;;21.80;63.50;;;;;;5111652;28;20164;-63
2021/08/12 00:44:00;;;;;;;3.13;2.83;;;21.80;63.60;;;;;;5112235;28;20238;-63
2021/08/12 00:46:26;;;;;;;3.00;2.67;;;21.70;63.50;;;;;;5111219;28;20178;-63
2021/08/12 00:48:51;;;;;;;2.70;2.50;;;21.70;63.50;;;;;;5093956;28;20654;-63
2021/08/12 00:51:17;;;;;;;3.00;2.70;;;21.80;63.60;;;;;;5111593;28;20213;-64
2021/08/12 00:53:42;;;;;;;2.80;2.60;;;21.80;63.60;;;;;;5111863;28;20580;-63
2021/08/12 00:56:08;;;;;;;2.70;2.50;;;21.70;63.50;;;;;;5077126;28;20177;-63
2021/08/12 00:58:34;;;;;;;2.78;2.58;;;21.70;63.50;;;;;;5111192;28;20266;-67
2021/08/12 01:00:59;;;;;;;3.08;2.78;;;21.70;63.60;;;;;;5111978;28;20204;-63
2021/08/12 01:03:26;;;;;;;3.05;2.85;;;21.70;63.50;;;;;;5111689;28;20165;-62
2021/08/12 01:05:51;;;;;;;2.95;2.35;;;21.70;63.50;;;;;;5114392;28;20165;-63
2021/08/12 01:08:33;;;;;;;2.80;2.60;;;21.70;63.60;;;;;;5115609;28;20230;-66
2021/08/12 01:11:28;;;;;;;2.80;2.60;;;21.70;63.50;;;;;;5115848;28;20220;-65
2021/08/12 01:14:22;;;;;;;2.90;2.58;;;21.70;63.50;;;;;;5082221;28;20757;-64
2021/08/12 01:16:56;;;;;;;3.13;2.83;;;21.70;63.50;;;;;;5083911;28;20185;-63
2021/08/12 01:19:31;;;;;;;3.05;2.80;;;21.70;63.50;;;;;;5115557;28;20504;-63
2021/08/12 01:22:01;;;;;;;3.47;2.67;;;21.70;63.50;;;;;;5097288;28;20260;-63
2021/08/12 01:24:29;;;;;;;2.90;2.58;;;21.70;63.50;;;;;;5115072;28;20640;-62
2021/08/12 01:26:58;;;;;;;2.63;2.42;;;21.70;63.50;;;;;;5096503;28;20169;-62
2021/08/12 01:29:37;;;;;;;3.03;2.72;;;21.70;64.40;;;;;;5080186;28;20178;-63
2021/08/12 01:32:21;;;;;;;3.70;2.53;;;21.70;63.50;;;;;;5097573;28;20185;-64
2021/08/12 01:35:06;;;;;;;3.33;2.65;;;21.70;63.50;;;;;;5096357;28;20724;-66
2021/08/12 01:37:40;;;;;;;2.63;2.42;;;21.60;63.50;;;;;;5114844;28;20189;-63
2021/08/12 01:40:08;;;;;;;3.25;2.95;;;21.60;63.50;;;;;;5097481;28;20181;-63
2021/08/12 01:42:34;;;;;;;3.13;2.40;;;21.70;63.50;;;;;;5079254;28;20618;-63
2021/08/12 01:44:59;;;;;;;3.25;2.95;;;21.70;63.50;;;;;;5115385;28;20650;-63
2021/08/12 01:47:25;;;;;;;2.95;2.65;;;21.60;63.50;;;;;;5114843;28;20169;-63
2021/08/12 01:49:51;;;;;;;2.88;2.58;;;21.60;63.50;;;;;;5095950;28;20205;-62
2021/08/12 01:52:17;;;;;;;3.03;2.83;;;21.60;63.50;;;;;;5080215;28;20177;-63
2021/08/12 01:54:43;;;;;;;3.00;2.70;;;21.60;63.50;;;;;;5095982;28;20169;-63
2021/08/12 01:57:09;;;;;;;2.88;2.67;;;21.60;63.50;;;;;;5080464;28;20173;-63
2021/08/12 01:59:34;;;;;;;2.90;2.70;;;21.60;63.50;;;;;;5114683;28;20179;-63
2021/08/12 02:02:00;;;;;;;2.75;2.55;;;21.60;63.50;;;;;;5114029;28;20635;-62
2021/08/12 02:04:25;;;;;;;2.80;2.60;;;21.60;63.50;;;;;;5079406;28;20173;-63
2021/08/12 02:06:51;;;;;;;2.75;2.55;;;21.60;63.50;;;;;;5096813;28;20169;-63
2021/08/12 02:09:16;;;;;;;3.30;2.97;;;21.60;63.50;;;;;;5113734;28;20177;-62
2021/08/12 02:11:43;;;;;;;3.45;3.15;;;21.60;64.30;;;;;;5114638;28;20213;-62
2021/08/12 02:14:09;;;;;;;3.25;2.95;;;21.60;63.50;;;;;;5114508;28;20557;-62
2021/08/12 02:16:34;;;;;;;3.33;3.03;;;21.60;63.50;;;;;;5113210;28;20169;-62
2021/08/12 02:19:00;;;;;;;3.60;3.30;;;21.50;63.40;;;;;;5114374;28;20169;-61
2021/08/12 02:21:41;;;;;;;2.75;2.55;;;21.60;63.70;;;;;;5095842;28;20222;-61
2021/08/12 02:24:14;;;;;;;3.20;2.90;;;21.50;63.40;;;;;;5080105;28;20173;-61
2021/08/12 02:26:42;;;;;;;3.17;2.88;;;21.60;63.50;;;;;;5079445;28;20173;-62
2021/08/12 02:29:08;;;;;;;3.33;2.85;;;21.60;63.50;;;;;;5096485;28;20177;-62
2021/08/12 02:31:33;;;;;;;3.10;2.90;;;21.50;63.40;;;;;;5078174;28;20223;-62
2021/08/12 02:33:59;;;;;;;3.63;2.92;;;21.50;63.40;;;;;;5114449;28;20631;-64
2021/08/12 02:36:24;;;;;;;3.00;2.70;;;21.50;63.40;;;;;;5095917;28;20177;-64
2021/08/12 02:38:50;;;;;;;3.20;2.90;;;21.50;63.40;;;;;;5095449;28;20169;-64
2021/08/12 02:41:18;;;;;;;3.47;2.80;;;21.50;63.40;;;;;;5079004;28;20184;-62
2021/08/12 02:43:43;;;;;;;3.20;2.97;;;21.50;63.40;;;;;;5096064;28;20197;-64
2021/08/12 02:46:09;;;;;;;3.10;2.90;;;21.50;63.40;;;;;;5095075;28;20311;-64
2021/08/12 02:48:35;;;;;;;2.97;2.78;;;21.50;63.40;;;;;;5078881;28;20400;-63
2021/08/12 02:51:01;;;;;;;3.20;2.90;;;21.50;63.40;;;;;;5095064;28;20295;-63
2021/08/12 02:53:27;;;;;;;3.10;2.72;;;21.50;63.40;;;;;;5113759;28;20180;-63
2021/08/12 02:55:53;;;;;;;2.60;2.40;;;21.50;63.40;;;;;;5078758;28;20181;-62
2021/08/12 02:58:18;;;;;;;3.35;2.83;;;21.50;63.40;;;;;;5113018;28;20180;-64
2021/08/12 03:00:44;;;;;;;3.10;2.72;;;21.50;63.60;;;;;;5095542;28;20177;-64
2021/08/12 03:03:10;;;;;;;2.60;2.40;;;21.50;63.40;;;;;;5113873;28;20242;-63
2021/08/12 03:05:35;;;;;;;3.38;3.00;;;21.50;63.40;;;;;;5077788;28;20181;-63
2021/08/12 03:08:01;;;;;;;3.58;2.97;;;21.50;63.40;;;;;;5078527;28;20254;-62
2021/08/12 03:10:28;;;;;;;3.05;2.75;;;21.50;63.40;;;;;;5078278;28;20216;-63
2021/08/12 03:12:54;;;;;;;3.38;3.08;;;21.50;63.40;;;;;;5094868;28;20184;-62
2021/08/12 03:15:19;;;;;;;3.17;2.88;;;21.50;63.40;;;;;;5094901;28;20176;-62
2021/08/12 03:17:45;;;;;;;2.85;2.65;;;21.50;63.40;;;;;;5095373;28;20158;-62
2021/08/12 03:20:12;;;;;;;3.40;3.10;;;21.50;63.50;;;;;;5094681;28;20208;-63
2021/08/12 03:22:37;;;;;;;2.80;2.60;;;21.40;63.40;;;;;;5112949;28;20277;-62
2021/08/12 03:25:03;;;;;;;3.33;3.03;;;21.40;63.40;;;;;;5095131;28;20526;-61
2021/08/12 03:27:29;;;;;;;4.25;3.00;;;21.40;63.40;;;;;;5111618;28;20576;-62
2021/08/12 03:29:54;;;;;;;4.00;3.35;;;21.40;63.40;;;;;;5113176;28;20204;-61
2021/08/12 03:32:20;;;;;;;2.85;2.65;;;21.40;63.40;;;;;;5113165;28;20173;-63
2021/08/12 03:34:46;;;;;;;3.45;3.15;;;21.40;63.40;;;;;;5112583;28;20181;-62
2021/08/12 03:37:12;;;;;;;3.35;3.05;;;21.50;63.40;;;;;;5113048;28;20673;-63
2021/08/12 03:39:37;;;;;;;3.30;3.00;;;21.40;63.40;;;;;;5112615;28;20185;-62
2021/08/12 03:42:03;;;;;;;3.08;2.83;;;21.40;63.40;;;;;;5112233;28;20252;-62
2021/08/12 03:44:28;;;;;;;3.10;2.90;;;21.40;63.40;;;;;;5112535;28;20287;-62
2021/08/12 03:46:54;;;;;;;3.45;3.17;;;21.40;63.50;;;;;;5113195;28;20171;-62
2021/08/12 03:49:19;;;;;;;3.40;3.03;;;21.40;63.40;;;;;;5112088;28;20177;-62
2021/08/12 03:51:45;;;;;;;3.47;3.17;;;21.40;63.40;;;;;;5112966;28;20228;-62
2021/08/12 03:54:10;;;;;;;2.83;2.60;;;21.40;63.40;;;;;;5112612;28;20183;-62
2021/08/12 03:56:36;;;;;;;3.58;3.28;;;21.40;63.50;;;;;;5112308;28;20241;-62
2021/08/12 03:59:02;;;;;;;2.90;2.70;;;21.40;63.40;;;;;;5112644;28;20216;-63
2021/08/12 04:01:29;;;;;;;3.03;2.80;;;21.40;63.50;;;;;;5111998;28;20181;-63
2021/08/12 04:03:55;;;;;;;3.25;2.83;;;21.40;63.50;;;;;;5112811;28;20169;-62
2021/08/12 04:06:20;;;;;;;3.13;2.83;;;21.40;63.40;;;;;;5112423;28;20629;-63
2021/08/12 04:08:46;;;;;;;3.85;3.10;;;21.40;63.40;;;;;;5111894;28;20165;-63
2021/08/12 04:11:11;;;;;;;3.15;2.88;;;21.30;63.40;;;;;;5112597;28;20608;-63
2021/08/12 04:13:37;;;;;;;2.90;2.60;;;21.40;63.40;;;;;;5112146;28;20173;-62
2021/08/12 04:16:03;;;;;;;3.45;3.15;;;21.40;63.50;;;;;;5111755;28;20628;-62
2021/08/12 04:18:28;;;;;;;3.10;2.90;;;21.40;63.50;;;;;;5112254;28;20169;-62
2021/08/12 04:20:54;;;;;;;3.70;3.40;;;21.40;63.50;;;;;;5112280;28;20731;-62
2021/08/12 04:23:19;;;;;;;4.35;3.13;;;21.40;63.40;;;;;;5111396;28;20251;-62
2021/08/12 04:25:51;;;;;;;3.25;3.05;;;21.30;63.40;;;;;;5112348;28;20683;-62
2021/08/12 04:28:17;;;;;;;3.13;2.83;;;21.40;63.50;;;;;;5111957;28;20654;-62
2021/08/12 04:30:42;;;;;;;3.15;2.90;;;21.30;63.40;;;;;;5111611;28;20212;-62
2021/08/12 04:33:08;;;;;;;2.90;2.70;;;21.30;63.40;;;;;;5112060;28;20183;-62
2021/08/12 04:35:33;;;;;;;3.15;2.90;;;21.30;63.40;;;;;;5112012;28;20192;-63
2021/08/12 04:37:59;;;;;;;3.53;3.22;;;21.30;63.40;;;;;;5111851;28;20180;-62
2021/08/12 04:40:24;;;;;;;3.28;2.97;;;21.30;63.40;;;;;;5116196;28;20176;-62
2021/08/12 04:42:50;;;;;;;3.50;3.20;;;21.30;63.40;;;;;;5116312;28;20204;-62
2021/08/12 04:45:16;;;;;;;3.42;3.15;;;21.30;63.40;;;;;;5115747;28;20197;-62
2021/08/12 04:47:42;;;;;;;3.20;3.00;;;21.30;63.40;;;;;;5116465;28;20207;-61
2021/08/12 04:50:08;;;;;;;3.10;2.85;;;21.30;63.40;;;;;;5116318;28;20240;-61
2021/08/12 04:52:33;;;;;;;3.55;3.15;;;21.40;63.40;;;;;;5115181;28;20193;-63
2021/08/12 04:54:59;;;;;;;3.50;3.20;;;21.30;63.40;;;;;;5116308;28;20200;-61
2021/08/12 04:57:25;;;;;;;3.00;2.80;;;21.40;63.40;;;;;;5115788;28;20189;-61
2021/08/12 04:59:50;;;;;;;3.40;3.20;;;21.30;63.30;;;;;;5115457;28;20290;-61
2021/08/12 05:02:16;;;;;;;3.10;2.90;;;21.30;63.30;;;;;;5115837;28;20173;-61
2021/08/12 05:04:41;;;;;;;3.83;3.53;;;21.30;63.30;;;;;;5115291;28;20180;-62
2021/08/12 05:07:07;;;;;;;3.35;3.05;;;21.30;63.30;;;;;;5115789;28;20540;-63
2021/08/12 05:09:33;;;;;;;3.47;3.17;;;21.40;63.40;;;;;;5115583;28;20188;-61
2021/08/12 05:11:59;;;;;;;3.20;3.00;;;21.30;63.40;;;;;;5115022;28;20229;-63
2021/08/12 05:14:24;;;;;;;3.60;3.30;;;21.40;63.40;;;;;;5115648;28;20637;-61
2021/08/12 05:16:50;;;;;;;3.45;3.15;;;21.30;63.40;;;;;;5115969;28;20169;-62
2021/08/12 05:19:16;;;;;;;4.05;3.10;;;21.30;63.30;;;;;;5114617;28;20223;-63
2021/08/12 05:21:41;;;;;;;3.08;2.88;;;21.30;63.30;;;;;;5115595;28;20647;-61
2021/08/12 05:24:07;;;;;;;5.40;3.00;;;21.30;63.30;;;;;;5115487;28;20169;-61
2021/08/12 05:26:32;;;;;;;3.60;3.10;;;21.30;63.30;;;;;;5114353;28;20249;-61
2021/08/12 05:28:58;;;;;;;2.80;2.60;;;21.30;63.30;;;;;;5115560;28;20226;-61
2021/08/12 05:31:23;;;;;;;3.35;3.05;;;21.40;63.30;;;;;;5115104;28;20208;-61
2021/08/12 05:33:49;;;;;;;3.45;3.25;;;21.40;63.30;;;;;;5114737;28;20535;-61
2021/08/12 05:36:14;;;;;;;3.33;3.03;;;21.40;63.30;;;;;;5115302;28;20238;-62
2021/08/12 05:38:40;;;;;;;3.75;3.45;;;21.40;63.20;;;;;;5114774;28;20541;-62
2021/08/12 05:41:05;;;;;;;2.85;2.65;;;21.40;63.20;;;;;;5114579;28;20176;-61
2021/08/12 05:43:31;;;;;;;3.65;3.35;;;21.40;63.20;;;;;;5114804;28;20211;-62
2021/08/12 05:45:56;;;;;;;3.22;3.03;;;21.40;63.20;;;;;;5115592;28;20177;-61
2021/08/12 05:48:22;;;;;;;3.47;3.17;;;21.40;63.20;;;;;;5114322;28;20173;-64
2021/08/12 05:50:47;;;;;;;4.40;3.35;;;21.40;63.10;;;;;;5114246;28;20235;-63
2021/08/12 05:53:17;;;;;;;3.13;2.92;;;21.40;63.10;;;;;;5115080;28;20218;-63
2021/08/12 05:55:42;;;;;;;2.97;2.78;;;21.40;63.00;;;;;;5096585;28;20201;-66
2021/08/12 05:58:08;;;;;;;3.00;2.80;;;21.40;63.00;;;;;;5115058;28;20193;-63
2021/08/12 06:00:33;;;;;;;3.00;2.80;;;21.40;63.00;;;;;;5114479;28;20231;-64
2021/08/12 06:03:25;;;;;;;3.00;2.80;;;21.40;63.00;;;;;;5114298;28;20173;-64
2021/08/12 06:05:55;;;;;;;2.95;2.75;;;21.40;63.10;;;;;;5110803;28;20197;-63
2021/08/12 06:08:21;;;;;;;3.38;3.08;;;21.40;63.10;;;;;;5113488;28;20169;-63
2021/08/12 06:10:47;;;;;;;3.22;2.92;;;21.40;63.20;;;;;;5114773;28;20227;-64
2021/08/12 06:13:12;;;;;;;2.97;2.78;;;21.40;63.10;;;;;;5114529;28;20169;-64
2021/08/12 06:15:38;;;;;;;3.25;3.05;;;21.40;63.00;;;;;;5113470;28;20180;-63
2021/08/12 06:18:10;;;;;;;3.33;3.03;;;21.50;63.00;;;;;;5114310;28;20165;-63
2021/08/12 06:20:36;;;;;;;3.05;2.83;;;21.40;63.00;;;;;;5114040;28;20178;-63
2021/08/12 06:23:05;;;;;;;3.10;2.65;;;21.50;62.90;;;;;;5113264;28;20217;-63
2021/08/12 06:25:30;;;;;;;3.50;3.20;;;21.50;62.90;;;;;;5113888;28;20635;-63
2021/08/12 06:27:56;;;;;;;3.10;2.90;;;21.50;62.80;;;;;;5114117;28;20272;-60
2021/08/12 06:30:21;;;;;;;3.05;2.83;;;21.50;62.80;;;;;;5113245;28;20234;-63
2021/08/12 06:32:47;;;;;;;3.50;3.20;;;21.50;62.80;;;;;;5114231;28;20268;-62
2021/08/12 06:35:12;;;;;;;3.10;2.85;;;21.50;62.70;;;;;;5113946;28;20212;-63
2021/08/12 06:37:46;;;;;;;3.05;2.85;;;21.60;62.70;;;;;;5113350;28;20294;-62
2021/08/12 06:40:15;;;;;;;4.60;2.95;;;21.50;62.70;;;;;;5114238;28;20296;-62
2021/08/12 06:42:41;;;;;;;3.22;2.97;;;21.60;62.80;;;;;;5114169;28;20218;-62
2021/08/12 06:45:07;;;;;;;3.13;2.92;;;21.60;62.70;;;;;;5113190;28;20247;-62
2021/08/12 06:47:33;;;;;;;3.90;3.45;;;21.60;62.70;;;;;;5113547;28;20169;-62
2021/08/12 06:49:59;;;;;;;3.20;2.90;;;21.60;62.60;;;;;;5113963;28;20216;-60
2021/08/12 06:52:24;;;;;;;3.22;2.78;;;21.60;62.60;;;;;;5113357;28;20607;-63
2021/08/12 06:54:50;;;;;;;3.30;3.00;;;21.60;62.60;;;;;;5113908;28;20191;-63
2021/08/12 06:57:16;;;;;;;3.28;3.00;;;21.60;62.60;;;;;;5112831;28;20173;-63
2021/08/12 06:59:41;;;;;;;3.28;3.00;;;21.70;62.70;;;;;;5113820;28;20643;-63
2021/08/12 07:02:07;;;;;;;4.68;3.17;;;21.70;62.60;;;;;;5112596;28;20173;-63
2021/08/12 07:04:32;;;;;;;3.30;3.00;;;21.70;62.60;;;;;;5112534;28;20169;-63
2021/08/12 07:06:58;;;;;;;3.40;3.10;;;21.70;62.60;;;;;;5113646;28;20180;-63
2021/08/12 07:09:23;;;;;;;3.55;3.25;;;21.70;62.60;;;;;;5113367;28;20631;-63
2021/08/12 07:11:51;;;;;;;3.40;3.20;;;21.70;62.60;;;;;;5112928;28;20240;-62
2021/08/12 07:14:17;;;;;;;3.22;3.03;;;21.70;63.50;;;;;;5113378;28;20178;-64
2021/08/12 07:16:42;;;;;;;3.40;3.10;;;21.70;62.60;;;;;;5113440;28;20544;-63
2021/08/12 07:19:08;;;;;;;3.80;3.47;;;21.70;62.60;;;;;;5112948;28;20169;-62
2021/08/12 07:21:34;;;;;;;3.58;3.28;;;21.80;62.70;;;;;;5112970;28;20219;-63
2021/08/12 07:23:59;;;;;;;3.30;3.00;;;21.80;62.70;;;;;;5113247;28;20169;-62
2021/08/12 07:26:24;;;;;;;3.65;3.35;;;21.80;62.70;;;;;;5112362;28;20169;-64
2021/08/12 07:28:56;;;;;;;3.25;3.00;;;21.80;62.70;;;;;;5113042;28;20509;-64
2021/08/12 07:31:22;;;;;;;3.30;3.10;;;21.80;62.70;;;;;;5112652;28;20208;-62
2021/08/12 07:33:47;;;;;;;3.90;3.10;;;21.80;62.90;;;;;;5112300;28;20688;-64
2021/08/12 07:36:13;;;;;;;3.85;3.40;;;21.90;62.90;;;;;;5113020;28;20190;-64
2021/08/12 07:38:38;;;;;;;6.88;3.97;;;21.90;62.80;;;;;;5112919;28;20169;-63
2021/08/12 07:41:04;;;;;;;4.32;3.25;;;21.90;62.80;;;;;;5112445;28;20197;-62
2021/08/12 07:43:30;;;;;;;4.18;3.40;;;21.90;62.80;;;;;;5112792;28;20176;-62
2021/08/12 07:45:55;;;;;;;4.35;3.53;;;21.90;62.90;;;;;;5112967;28;20173;-61
2021/08/12 07:48:21;;;;;;;3.55;3.25;;;22.00;62.90;;;;;;5112052;28;20631;-61
2021/08/12 07:50:47;;;;;;;4.03;3.45;;;22.00;62.90;;;;;;5112825;28;20686;-62
2021/08/12 07:53:13;;;;;;;3.45;3.00;;;22.00;63.00;;;;;;5113166;28;20184;-62
2021/08/12 07:55:38;;;;;;;3.45;3.13;;;22.00;62.90;;;;;;5111900;28;20196;-63
2021/08/12 07:58:04;;;;;;;4.35;3.20;;;22.00;62.90;;;;;;5112922;28;20195;-62
2021/08/12 08:00:29;;;;;;;3.65;3.30;;;22.10;63.00;;;;;;5111744;28;20200;-62
2021/08/12 08:02:55;;;;;;;4.20;3.53;;;22.10;62.90;;;;;;5112819;28;20171;-62
2021/08/12 08:05:22;;;;;;;4.03;3.72;;;22.10;62.90;;;;;;5112300;28;20181;-63
2021/08/12 08:07:49;;;;;;;4.78;3.50;;;22.10;62.90;;;;;;5112096;28;20181;-62
2021/08/12 08:10:15;;;;;;;4.07;3.40;;;22.10;62.90;;;;;;5112673;28;20581;-66
2021/08/12 08:12:42;;;;;;;6.07;3.33;;;22.20;63.00;;;;;;5117675;27;20252;-62
2021/08/12 08:15:09;;;;;;;5.57;3.63;;;22.20;62.90;;;;;;5119997;27;20256;-60
2021/08/12 08:17:35;;;;;;;5.30;3.58;;;22.20;63.00;;;;;;5124145;27;20181;-62
2021/08/12 08:20:00;;;;;;;3.80;3.40;;;22.20;63.00;;;;;;5121177;27;20196;-63
2021/08/12 08:22:26;;;;;;;3.38;3.08;;;22.30;63.10;;;;;;5120910;27;20709;-62
2021/08/12 08:24:51;;;;;;;3.53;3.15;;;22.30;63.10;;;;;;5120346;27;20168;-62
2021/08/12 08:27:17;;;;;;;3.90;3.50;;;22.30;63.10;;;;;;5121384;27;20720;-63
2021/08/12 08:29:42;;;;;;;5.00;3.72;;;22.30;63.10;;;;;;5121490;28;20161;-62
2021/08/12 08:32:08;;;;;;;4.05;3.30;;;22.30;63.10;;;;;;5121506;28;20173;-63
2021/08/12 08:34:34;;;;;;;4.15;3.17;;;22.40;63.20;;;;;;5123003;28;20164;-64
2021/08/12 08:36:59;;;;;;;4.13;3.70;;;22.40;63.20;;;;;;5120974;28;20176;-62
2021/08/12 08:39:28;;;;;;;4.90;3.80;;;22.40;63.30;;;;;;5124268;28;20298;-63
2021/08/12 08:41:56;;;;;;;6.32;4.05;;;22.40;63.10;;;;;;5124118;28;20173;-63
2021/08/12 08:44:22;;;;;;;5.68;3.67;;;22.50;63.10;;;;;;5120979;28;20173;-62
2021/08/12 08:46:48;;;;;;;4.25;3.63;;;22.50;63.30;;;;;;5105065;28;20180;-63
2021/08/12 08:49:14;;;;;;;5.28;3.30;;;22.50;63.20;;;;;;5124036;28;20172;-62
2021/08/12 08:51:39;;;;;;;4.18;3.40;;;22.50;63.30;;;;;;5102553;28;20513;-60
2021/08/12 08:54:05;;;;;;;5.68;4.30;;;22.50;63.30;;;;;;5132371;28;20187;-62
2021/08/12 08:56:31;;;;;;;6.07;4.25;;;22.50;62.60;;;;;;5113998;28;20188;-62
2021/08/12 08:58:57;;;;;;;6.63;5.07;;;22.60;62.40;;;;;;5131684;28;20168;-63
2021/08/12 09:01:22;;;;;;;4.70;4.00;;;22.60;61.40;;;;;;5113542;28;20180;-62
2021/08/12 09:03:49;;;;;;;6.28;4.97;;;22.70;61.20;;;;;;5131470;28;20641;-63
2021/08/12 09:06:15;;;;;;;4.47;4.03;;;22.70;60.70;;;;;;5132309;28;20622;-62
2021/08/12 09:08:40;;;;;;;7.53;5.05;;;22.70;60.10;;;;;;5113679;28;20193;-62
2021/08/12 09:11:06;;;;;;;7.97;4.63;;;22.70;59.70;;;;;;5127510;28;20196;-61
2021/08/12 09:13:31;;;;;;;7.28;4.55;;;22.70;59.70;;;;;;5119888;28;20169;-61
2021/08/12 09:15:57;;;;;;;5.55;4.50;;;22.70;59.70;;;;;;5121270;28;20260;-62
2021/08/12 09:18:27;;;;;;;6.65;5.05;;;22.80;59.60;;;;;;5110896;28;20165;-61
2021/08/12 09:20:54;;;;;;;5.38;4.68;;;22.80;59.30;;;;;;5128173;28;20168;-61
2021/08/12 09:23:24;;;;;;;6.38;4.70;;;22.80;59.00;;;;;;5131952;28;20626;-61
2021/08/12 09:25:50;;;;;;;6.20;4.90;;;22.80;59.10;;;;;;5132198;27;20536;-61
2021/08/12 09:28:32;;;;;;;5.00;4.50;;;22.90;59.00;;;;;;5128938;27;20623;-61
2021/08/12 09:30:57;;;;;;;6.72;4.90;;;22.90;58.80;;;;;;5115277;28;20698;-64
2021/08/12 09:33:23;;;;;;;6.03;4.85;;;22.90;58.80;;;;;;5114794;28;20165;-62
2021/08/12 09:35:48;;;;;;;6.70;4.68;;;22.90;58.70;;;;;;5115494;28;20623;-62
2021/08/12 09:38:14;;;;;;;5.28;4.13;;;22.90;58.90;;;;;;5115592;28;20173;-62
2021/08/12 09:40:40;;;;;;;6.38;5.05;;;23.00;58.90;;;;;;5113942;28;20703;-62
2021/08/12 09:43:07;;;;;;;6.72;4.35;;;23.00;58.70;;;;;;5115440;28;20552;-62
2021/08/12 09:45:33;;;;;;;5.45;4.72;;;23.00;58.40;;;;;;5123744;27;20176;-62
2021/08/12 09:48:09;;;;;;;6.32;4.95;;;23.00;58.50;;;;;;5135194;27;20168;-61
2021/08/12 09:50:35;;;;;;;7.55;4.75;;;23.10;58.60;;;;;;5135368;27;20200;-64
2021/08/12 09:53:01;;;;;;;4.85;4.40;;;23.10;58.50;;;;;;5135149;27;20318;-61
2021/08/12 09:55:27;;;;;;;6.20;3.95;;;23.10;58.40;;;;;;5134888;27;20267;-62
2021/08/12 09:57:53;;;;;;;5.22;4.20;;;23.10;58.40;;;;;;5135537;27;20655;-62
2021/08/12 10:00:24;;;;;;;4.25;3.85;;;23.10;58.20;;;;;;5134672;27;20168;-62
2021/08/12 10:02:50;;;;;;;5.05;4.50;;;23.20;58.10;;;;;;5135506;27;20205;-62
2021/08/12 10:05:16;;;;;;;4.70;4.30;;;23.20;57.90;;;;;;5135183;27;20172;-63
2021/08/12 10:07:52;;;;;;;5.03;4.28;;;23.20;57.80;;;;;;5134736;27;20265;-62
2021/08/12 10:10:25;;;;;;;5.05;4.55;;;23.20;58.10;;;;;;5135258;27;20294;-63
2021/08/12 10:12:55;;;;;;;6.47;3.85;;;23.20;58.30;;;;;;5135615;27;20229;-62
2021/08/12 10:15:31;;;;;;;5.82;3.90;;;23.20;58.70;;;;;;5134208;27;20173;-62
2021/08/12 10:17:59;;;;;;;5.10;3.90;;;23.20;58.80;;;;;;5135078;27;20184;-60
2021/08/12 10:20:35;;;;;;;4.05;3.53;;;23.20;59.00;;;;;;5134924;27;20178;-62
2021/08/12 10:23:02;;;;;;;5.43;3.58;;;23.20;59.20;;;;;;5134406;27;20508;-65
2021/08/12 10:25:28;;;;;;;4.20;3.85;;;23.20;59.30;;;;;;5134899;27;20248;-62
2021/08/12 10:27:55;;;;;;;4.55;3.70;;;23.20;59.40;;;;;;5135134;27;20693;-62
2021/08/12 10:30:22;;;;;;;8.18;3.85;;;23.20;59.50;;;;;;5133792;27;20217;-62
2021/08/12 10:33:01;;;;;;;4.85;4.10;;;23.20;59.60;;;;;;5134659;27;20195;-62
2021/08/12 10:35:28;;;;;;;4.20;3.70;;;23.20;59.60;;;;;;5133815;27;20172;-62
2021/08/12 10:37:54;;;;;;;4.13;3.70;;;23.20;59.70;;;;;;5134475;27;20173;-62
2021/08/12 10:40:24;;;;;;;4.53;3.42;;;23.30;59.80;;;;;;5134429;27;20173;-63
2021/08/12 10:42:49;;;;;;;5.28;3.70;;;23.30;59.80;;;;;;5115390;27;20194;-62
2021/08/12 10:45:18;;;;;;;4.25;3.72;;;23.30;59.90;;;;;;5116142;27;20168;-62
2021/08/12 10:47:52;;;;;;;3.92;3.40;;;23.30;59.90;;;;;;5134634;27;20182;-62
2021/08/12 10:50:24;;;;;;;4.90;3.60;;;23.30;60.00;;;;;;5133568;27;20231;-62
2021/08/12 10:53:07;;;;;;;5.93;3.55;;;23.30;60.00;;;;;;5134456;27;20195;-62
2021/08/12 10:56:11;;;;;;;5.85;3.85;;;23.30;60.10;;;;;;5133908;27;20169;-62
2021/08/12 10:58:38;;;;;;;6.28;3.53;;;23.30;60.10;;;;;;5133858;27;20172;-63
2021/08/12 11:01:06;;;;;;;6.03;4.10;;;23.30;60.10;;;;;;5134192;27;20179;-62
2021/08/12 11:03:32;;;;;;;5.38;3.97;;;23.30;60.20;;;;;;5133064;27;20175;-62
2021/08/12 11:06:07;;;;;;;3.83;3.53;;;23.30;60.20;;;;;;5134102;27;20184;-61
2021/08/12 11:08:48;;;;;;;5.45;3.38;;;23.40;60.30;;;;;;5133979;27;20264;-62
2021/08/12 11:11:34;;;;;;;6.18;3.70;;;23.30;60.20;;;;;;5133572;27;20211;-61
2021/08/12 11:14:12;;;;;;;4.07;3.75;;;23.40;60.30;;;;;;5119386;27;20654;-61
2021/08/12 11:16:40;;;;;;;3.63;3.33;;;23.40;60.20;;;;;;5134017;27;20165;-61
2021/08/12 11:19:29;;;;;;;5.10;3.90;;;23.40;60.30;;;;;;5133653;27;20241;-61
2021/08/12 11:21:55;;;;;;;4.45;3.53;;;23.40;60.40;;;;;;5120807;27;20223;-62
2021/08/12 11:24:24;;;;;;;3.67;3.30;;;23.40;60.50;;;;;;5133140;27;20212;-61
2021/08/12 11:26:50;;;;;;;4.57;3.95;;;23.30;60.60;;;;;;5133697;27;20524;-61
2021/08/12 11:32:01;;;;;;;5.38;3.55;;;23.40;60.50;;;;;;5133046;27;20212;-62
2021/08/12 11:34:47;;;;;;;3.65;3.15;;;23.40;60.60;;;;;;5133398;27;20635;-63
2021/08/12 11:37:25;;;;;;;3.55;3.20;;;23.40;60.70;;;;;;5119096;27;20182;-62
2021/08/12 11:39:58;;;;;;;4.28;3.88;;;23.30;60.70;;;;;;5133322;27;20180;-62
2021/08/12 11:42:25;;;;;;;3.70;2.97;;;23.30;60.80;;;;;;5133668;27;20169;-62
2021/08/12 11:44:52;;;;;;;3.70;3.22;;;23.30;60.80;;;;;;5133655;27;20176;-62
2021/08/12 11:47:17;;;;;;;4.03;3.65;;;23.40;60.80;;;;;;5132470;27;20221;-62
2021/08/12 11:49:47;;;;;;;4.32;3.92;;;23.40;60.60;;;;;;5132969;27;20606;-62
2021/08/12 11:52:20;;;;;;;4.47;3.95;;;23.40;60.50;;;;;;5133715;27;20596;-62
2021/08/12 11:54:52;;;;;;;3.63;3.13;;;23.50;60.40;;;;;;5132660;27;20534;-62
2021/08/12 11:57:18;;;;;;;3.78;3.47;;;23.50;60.30;;;;;;5133231;27;20253;-62
2021/08/12 11:59:43;;;;;;;3.72;3.42;;;23.50;60.20;;;;;;5114477;27;20264;-62
2021/08/12 12:02:09;;;;;;;3.47;3.17;;;23.50;60.30;;;;;;5133250;27;20236;-62
2021/08/12 12:04:35;;;;;;;4.47;3.20;;;23.50;60.30;;;;;;5114765;27;21016;-62
2021/08/12 12:07:00;;;;;;;3.78;3.47;;;23.60;60.10;;;;;;5114294;27;20282;-62
2021/08/12 12:09:31;;;;;;;3.65;3.38;;;23.70;60.10;;;;;;5114791;27;20238;-61
2021/08/12 12:12:02;;;;;;;3.45;3.20;;;23.60;60.00;;;;;;5133204;27;20240;-62
2021/08/12 12:14:33;;;;;;;4.13;3.33;;;23.60;60.30;;;;;;5132196;27;20184;-62
2021/08/12 12:17:15;;;;;;;3.85;3.28;;;23.60;60.30;;;;;;5133093;27;20176;-62
2021/08/12 12:20:09;;;;;;;3.50;3.20;;;23.60;60.30;;;;;;5132679;27;20543;-61
2021/08/12 12:22:35;;;;;;;4.18;3.50;;;23.60;60.40;;;;;;5131706;27;20504;-62
2021/08/12 12:25:02;;;;;;;3.15;2.88;;;23.70;60.20;;;;;;5133023;27;20176;-61
2021/08/12 12:27:28;;;;;;;3.78;3.38;;;23.70;59.90;;;;;;5132660;27;20176;-61
2021/08/12 12:29:54;;;;;;;4.00;3.60;;;23.70;59.90;;;;;;5132489;28;20255;-61
2021/08/12 12:32:20;;;;;;;3.22;2.92;;;23.70;59.90;;;;;;5114137;28;20188;-63
2021/08/12 12:34:53;;;;;;;4.07;3.78;;;23.70;59.90;;;;;;5132446;28;20177;-63
2021/08/12 12:37:19;;;;;;;6.97;3.53;;;23.70;59.90;;;;;;5132791;28;20180;-62
2021/08/12 12:39:45;;;;;;;3.70;3.33;;;23.70;59.90;;;;;;5132945;28;20191;-61
2021/08/12 12:42:10;;;;;;;4.10;3.60;;;23.70;60.00;;;;;;5114100;28;20183;-61
2021/08/12 12:44:36;;;;;;;3.53;3.22;;;23.70;59.90;;;;;;5114505;28;20240;-61
2021/08/12 12:47:22;;;;;;;3.63;3.33;;;23.70;60.00;;;;;;5114603;28;20265;-61
2021/08/12 12:49:47;;;;;;;3.35;3.15;;;23.70;60.20;;;;;;5132176;28;20176;-61
2021/08/12 12:52:13;;;;;;;5.10;3.33;;;23.70;60.00;;;;;;5114303;28;20172;-60